Time,TemperatureF,DewpointF,PressureIn,WindDirection,WindDirectionDegrees,WindSpeedMPH,WindSpeedGustMPH,Humidity,HourlyPrecipIn,Conditions,Clouds,dailyrainin,SoftwareType,DateUTC
2013-02-08 00:06:00,72.6,67.0,30.11,ENE,61,0.0,6.0,83,0.00,,,0.00,weatherlink.com 1.10,2013-02-08 10:06:00,
2013-02-08 00:24:00,72.4,67.0,30.11,East,96,0.0,7.0,84,0.00,,,0.00,weatherlink.com 1.10,2013-02-08 10:24:00,
2013-02-08 00:42:00,72.2,67.0,30.10,ESE,111,0.0,4.0,84,0.00,,,0.00,weatherlink.com 1.10,2013-02-08 10:42:00,
2013-02-08 01:01:00,72.5,67.0,30.10,NE,49,0.0,7.0,84,0.00,,,0.00,weatherlink.com 1.10,2013-02-08 11:01:00,
2013-02-08 01:18:00,72.6,67.0,30.10,ENE,62,3.0,7.0,83,0.00,,,0.00,weatherlink.com 1.10,2013-02-08 11:18:00,
2013-02-08 01:36:00,72.4,67.0,30.09,ENE,67,0.0,5.0,83,0.00,,,0.00,weatherlink.com 1.10,2013-02-08 11:36:00,
2013-02-08 01:55:00,72.3,67.0,30.09,SE,134,9.0,9.0,83,0.00,,,0.00,weatherlink.com 1.10,2013-02-08 11:55:00,
2013-02-08 02:13:00,72.3,66.0,30.08,ENE,75,5.0,6.0,82,0.00,,,0.00,weatherlink.com 1.10,2013-02-08 12:13:00,
2013-02-08 02:31:00,72.3,67.0,30.08,NE,48,0.0,4.0,83,0.00,,,0.00,weatherlink.com 1.10,2013-02-08 12:31:00,
2013-02-08 02:50:00,72.3,67.0,30.07,ENE,63,2.0,4.0,83,0.00,,,0.00,weatherlink.com 1.10,2013-02-08 12:50:00,
2013-02-08 03:08:00,72.1,67.0,30.07,ENE,62,4.0,4.0,84,0.00,,,0.00,weatherlink.com 1.10,2013-02-08 13:08:00,
2013-02-08 03:26:00,71.9,66.0,30.07,East,93,3.0,5.0,83,0.00,,,0.00,weatherlink.com 1.10,2013-02-08 13:26:00,
2013-02-08 03:44:00,71.9,66.0,30.07,NE,54,3.0,6.0,83,0.00,,,0.00,weatherlink.com 1.10,2013-02-08 13:44:00,
2013-02-08 04:03:00,71.9,67.0,30.07,NE,56,0.0,4.0,84,0.00,,,0.00,weatherlink.com 1.10,2013-02-08 14:03:00,
2013-02-08 04:21:00,71.6,67.0,30.07,East,80,0.0,3.0,84,0.00,,,0.00,weatherlink.com 1.10,2013-02-08 14:21:00,
2013-02-08 04:38:00,71.1,66.0,30.07,ENE,63,0.0,2.0,85,0.00,,,0.00,weatherlink.com 1.10,2013-02-08 14:38:00,
2013-02-08 04:59:00,71.2,66.0,30.07,NE,46,2.0,4.0,85,0.00,,,0.00,weatherlink.com 1.10,2013-02-08 14:59:00,
2013-02-08 05:16:00,71.5,66.0,30.07,NNE,17,0.0,4.0,84,0.00,,,0.00,weatherlink.com 1.10,2013-02-08 15:16:00,
2013-02-08 05:34:00,71.2,66.0,30.08,SE,130,0.0,4.0,85,0.00,,,0.00,weatherlink.com 1.10,2013-02-08 15:34:00,
2013-02-08 05:52:00,71.2,66.0,30.08,NNE,28,0.0,4.0,84,0.00,,,0.00,weatherlink.com 1.10,2013-02-08 15:52:00,
2013-02-08 06:10:00,71.0,66.0,30.09,East,95,0.0,5.0,85,0.00,,,0.00,weatherlink.com 1.10,2013-02-08 16:10:00,
2013-02-08 06:28:00,71.3,67.0,30.09,NE,42,4.0,5.0,85,0.00,,,0.00,weatherlink.com 1.10,2013-02-08 16:28:00,
2013-02-08 06:47:00,71.3,66.0,30.09,ESE,103,0.0,2.0,84,0.00,,,0.00,weatherlink.com 1.10,2013-02-08 16:47:00,
2013-02-08 07:06:00,71.2,66.0,30.09,ESE,103,0.0,2.0,84,0.00,,,0.00,weatherlink.com 1.10,2013-02-08 17:06:00,
2013-02-08 07:24:00,71.6,67.0,30.10,NE,37,0.0,5.0,84,0.00,,,0.00,weatherlink.com 1.10,2013-02-08 17:24:00,
2013-02-08 07:42:00,72.1,67.0,30.10,NE,49,0.0,4.0,83,0.00,,,0.00,weatherlink.com 1.10,2013-02-08 17:42:00,
2013-02-08 08:01:00,72.6,67.0,30.11,ENE,57,2.0,3.0,82,0.00,,,0.00,weatherlink.com 1.10,2013-02-08 18:01:00,
2013-02-08 08:19:00,73.4,67.0,30.11,NNE,28,0.0,4.0,80,0.00,,,0.00,weatherlink.com 1.10,2013-02-08 18:19:00,
2013-02-08 08:37:00,74.0,68.0,30.11,ENE,72,0.0,3.0,81,0.00,,,0.00,weatherlink.com 1.10,2013-02-08 18:37:00,
2013-02-08 08:55:00,74.3,68.0,30.12,North,355,6.0,6.0,80,0.00,,,0.00,weatherlink.com 1.10,2013-02-08 18:55:00,
2013-02-08 09:13:00,75.1,68.0,30.12,NE,55,1.0,6.0,78,0.00,,,0.00,weatherlink.com 1.10,2013-02-08 19:13:00,
2013-02-08 09:32:00,76.4,68.0,30.12,ENE,65,1.0,5.0,75,0.00,,,0.00,weatherlink.com 1.10,2013-02-08 19:32:00,
2013-02-08 09:50:00,76.3,68.0,30.13,East,99,0.0,7.0,75,0.00,,,0.00,weatherlink.com 1.10,2013-02-08 19:50:00,
2013-02-08 10:08:00,77.1,67.0,30.13,East,86,1.0,8.0,72,0.00,,,0.00,weatherlink.com 1.10,2013-02-08 20:08:00,
2013-02-08 10:26:00,77.5,69.0,30.12,ENE,61,5.0,8.0,74,0.00,,,0.00,weatherlink.com 1.10,2013-02-08 20:26:00,
2013-02-08 10:44:00,78.5,69.0,30.12,NNE,32,3.0,7.0,72,0.00,,,0.00,weatherlink.com 1.10,2013-02-08 20:44:00,
2013-02-08 11:03:00,78.1,69.0,30.11,NE,52,2.0,7.0,73,0.00,,,0.00,weatherlink.com 1.10,2013-02-08 21:03:00,
2013-02-08 11:21:00,77.9,69.0,30.11,ENE,71,3.0,7.0,74,0.00,,,0.00,weatherlink.com 1.10,2013-02-08 21:21:00,
2013-02-08 11:39:00,77.9,69.0,30.11,North,355,6.0,7.0,74,0.00,,,0.00,weatherlink.com 1.10,2013-02-08 21:39:00,
2013-02-08 11:57:00,77.7,69.0,30.10,North,355,2.0,9.0,74,0.00,,,0.00,weatherlink.com 1.10,2013-02-08 21:57:00,
2013-02-08 12:16:00,77.7,69.0,30.09,NE,42,1.0,12.0,75,0.00,,,0.00,weatherlink.com 1.10,2013-02-08 22:16:00,
2013-02-08 12:34:00,77.7,68.0,30.09,ENE,74,2.0,12.0,72,0.00,,,0.00,weatherlink.com 1.10,2013-02-08 22:34:00,
2013-02-08 12:52:00,77.3,68.0,30.08,ESE,110,3.0,8.0,74,0.00,,,0.00,weatherlink.com 1.10,2013-02-08 22:52:00,
2013-02-08 13:10:00,78.0,69.0,30.07,ESE,111,3.0,5.0,74,0.00,,,0.00,weatherlink.com 1.10,2013-02-08 23:10:00,
2013-02-08 13:28:00,78.3,69.0,30.06,NNE,32,2.0,6.0,74,0.00,,,0.00,weatherlink.com 1.10,2013-02-08 23:28:00,
2013-02-08 13:46:00,78.3,69.0,30.05,ENE,70,2.0,5.0,74,0.00,,,0.00,weatherlink.com 1.10,2013-02-08 23:46:00,
2013-02-08 14:04:00,77.3,69.0,30.05,NE,39,5.0,6.0,75,0.00,,,0.00,weatherlink.com 1.10,2013-02-09 00:04:00,
2013-02-08 14:23:00,76.8,69.0,30.04,East,82,2.0,6.0,76,0.00,,,0.00,weatherlink.com 1.10,2013-02-09 00:23:00,
2013-02-08 14:40:00,78.5,69.0,30.04,East,92,1.0,7.0,73,0.00,,,0.00,weatherlink.com 1.10,2013-02-09 00:40:00,
2013-02-08 14:58:00,77.0,68.0,30.03,ENE,66,0.0,7.0,73,0.00,,,0.00,weatherlink.com 1.10,2013-02-09 00:58:00,
2013-02-08 15:19:00,76.4,68.0,30.04,NE,34,3.0,6.0,76,0.00,,,0.00,weatherlink.com 1.10,2013-02-09 01:19:00,
2013-02-08 15:35:00,77.4,69.0,30.03,NE,36,0.0,5.0,75,0.00,,,0.00,weatherlink.com 1.10,2013-02-09 01:35:00,
2013-02-08 15:53:00,76.2,68.0,30.03,ENE,57,1.0,8.0,77,0.00,,,0.00,weatherlink.com 1.10,2013-02-09 01:53:00,
2013-02-08 16:11:00,75.2,67.0,30.04,NE,52,2.0,9.0,77,0.00,,,0.00,weatherlink.com 1.10,2013-02-09 02:11:00,
2013-02-08 16:29:00,74.9,67.0,30.04,NE,47,0.0,8.0,77,0.00,,,0.00,weatherlink.com 1.10,2013-02-09 02:29:00,
2013-02-08 16:47:00,74.7,67.0,30.04,NE,54,2.0,7.0,77,0.00,,,0.00,weatherlink.com 1.10,2013-02-09 02:47:00,
2013-02-08 17:05:00,74.5,68.0,30.04,ENE,58,2.0,7.0,79,0.00,,,0.00,weatherlink.com 1.10,2013-02-09 03:05:00,
2013-02-08 17:23:00,74.7,67.0,30.05,NE,36,3.0,7.0,78,0.00,,,0.00,weatherlink.com 1.10,2013-02-09 03:23:00,
2013-02-08 17:42:00,74.2,68.0,30.05,NE,51,1.0,5.0,80,0.00,,,0.00,weatherlink.com 1.10,2013-02-09 03:42:00,
2013-02-08 18:00:00,73.7,67.0,30.05,NE,40,0.0,5.0,79,0.00,,,0.00,weatherlink.com 1.10,2013-02-09 04:00:00,
2013-02-08 18:19:00,73.4,67.0,30.06,NE,46,1.0,7.0,80,0.00,,,0.00,weatherlink.com 1.10,2013-02-09 04:19:00,
2013-02-08 18:36:00,72.9,67.0,30.07,NE,35,0.0,4.0,81,0.00,,,0.00,weatherlink.com 1.10,2013-02-09 04:36:00,
2013-02-08 18:55:00,72.3,66.0,30.07,NE,35,0.0,2.0,82,0.00,,,0.00,weatherlink.com 1.10,2013-02-09 04:55:00,
2013-02-08 19:12:00,71.9,66.0,30.07,NE,35,0.0,3.0,83,0.00,,,0.00,weatherlink.com 1.10,2013-02-09 05:12:00,
2013-02-08 19:31:00,71.6,66.0,30.08,NE,42,1.0,2.0,83,0.00,,,0.00,weatherlink.com 1.10,2013-02-09 05:31:00,
2013-02-08 19:49:00,71.8,67.0,30.08,North,5,0.0,4.0,84,0.00,,,0.00,weatherlink.com 1.10,2013-02-09 05:49:00,
2013-02-08 20:07:00,71.8,66.0,30.08,ENE,66,0.0,3.0,82,0.00,,,0.00,weatherlink.com 1.10,2013-02-09 06:07:00,
2013-02-08 20:25:00,71.8,66.0,30.08,North,11,0.0,4.0,82,0.00,,,0.00,weatherlink.com 1.10,2013-02-09 06:25:00,
2013-02-08 20:43:00,71.7,66.0,30.08,ENE,74,0.0,4.0,82,0.00,,,0.00,weatherlink.com 1.10,2013-02-09 06:43:00,
2013-02-08 21:02:00,71.7,66.0,30.09,NE,44,4.0,5.0,83,0.00,,,0.00,weatherlink.com 1.10,2013-02-09 07:02:00,
2013-02-08 21:19:00,71.6,66.0,30.09,NE,53,0.0,3.0,83,0.00,,,0.00,weatherlink.com 1.10,2013-02-09 07:19:00,
2013-02-08 21:38:00,71.3,66.0,30.09,NE,44,0.0,2.0,83,0.00,,,0.00,weatherlink.com 1.10,2013-02-09 07:38:00,
2013-02-08 21:56:00,71.0,66.0,30.09,NE,46,0.0,1.0,84,0.00,,,0.00,weatherlink.com 1.10,2013-02-09 07:56:00,
2013-02-08 22:15:00,70.7,66.0,30.09,NE,46,0.0,1.0,85,0.00,,,0.00,weatherlink.com 1.10,2013-02-09 08:15:00,
2013-02-08 22:33:00,70.4,66.0,30.09,NE,46,0.0,2.0,86,0.00,,,0.00,weatherlink.com 1.10,2013-02-09 08:33:00,
2013-02-08 22:51:00,69.8,66.0,30.09,NE,46,0.0,1.0,87,0.00,,,0.00,weatherlink.com 1.10,2013-02-09 08:51:00,
2013-02-08 23:09:00,69.7,66.0,30.09,NE,46,0.0,1.0,88,0.00,,,0.00,weatherlink.com 1.10,2013-02-09 09:09:00,
2013-02-08 23:27:00,70.2,66.0,30.08,NE,46,0.0,2.0,87,0.00,,,0.00,weatherlink.com 1.10,2013-02-09 09:27:00,
2013-02-08 23:45:00,70.4,66.0,30.08,NE,46,0.0,2.0,87,0.00,,,0.00,weatherlink.com 1.10,2013-02-09 09:45:00,